Time;durP1;ratioP1;P1;durP2;ratioP2;P2;SDS_P1;SDS_P2;PMS_P1;PMS_P2;Temp;Humidity;BMP_temperature;BMP_pressure;BME280_temperature;BME280_humidity;BME280_pressure;Samples;Min_cycle;Max_cycle;Signal;HPM_P1;HPM_P2
2022/06/25 00:00:34;;;;;;;65.00;51.35;;;24.00;69.50;;;;;;4962693;28;91185;-58
2022/06/25 00:03:00;;;;;;;64.65;51.28;;;24.00;69.40;;;;;;4965462;28;91768;-57
2022/06/25 00:05:28;;;;;;;64.57;51.05;;;24.00;70.10;;;;;;4971230;28;89912;-57
2022/06/25 00:07:58;;;;;;;65.03;51.05;;;24.00;69.30;;;;;;4961744;28;89887;-55
2022/06/25 00:10:24;;;;;;;64.40;51.03;;;24.00;69.30;;;;;;4970038;28;91716;-58
2022/06/25 00:12:51;;;;;;;64.75;51.08;;;24.00;69.10;;;;;;4966461;28;92404;-58
2022/06/25 00:15:17;;;;;;;65.45;51.17;;;24.00;69.20;;;;;;4969851;28;91914;-58
2022/06/25 00:17:43;;;;;;;65.10;51.35;;;23.90;69.10;;;;;;4956870;28;97343;-54
2022/06/25 00:20:09;;;;;;;65.00;51.17;;;23.90;69.10;;;;;;4966995;28;90275;-58
2022/06/25 00:22:35;;;;;;;64.80;51.15;;;23.90;69.30;;;;;;4966796;28;92647;-57
2022/06/25 00:25:01;;;;;;;64.90;51.13;;;23.90;69.10;;;;;;4972719;28;90872;-57
2022/06/25 00:27:27;;;;;;;64.90;51.15;;;23.90;69.10;;;;;;4962956;28;89387;-57
2022/06/25 00:29:53;;;;;;;65.10;51.40;;;23.90;68.80;;;;;;4966245;28;91103;-57
2022/06/25 00:32:19;;;;;;;65.03;51.22;;;23.90;69.00;;;;;;4961711;28;97502;-54
2022/06/25 00:34:45;;;;;;;64.95;51.13;;;23.90;68.80;;;;;;4967370;28;90713;-57
2022/06/25 00:37:11;;;;;;;64.63;51.17;;;23.90;69.20;;;;;;4959227;28;90713;-56
2022/06/25 00:39:37;;;;;;;64.90;51.10;;;23.80;69.10;;;;;;4959175;28;90978;-56
2022/06/25 00:42:09;;;;;;;65.80;51.25;;;23.90;69.00;;;;;;4960224;28;89938;-57
2022/06/25 00:44:35;;;;;;;64.57;51.03;;;23.90;69.30;;;;;;4966068;28;90168;-57
2022/06/25 00:47:02;;;;;;;64.72;51.08;;;23.80;68.90;;;;;;4965688;28;90253;-57
2022/06/25 00:49:28;;;;;;;64.35;51.00;;;23.80;69.00;;;;;;4961242;28;93980;-54
2022/06/25 00:52:00;;;;;;;65.45;51.40;;;23.90;69.10;;;;;;4969079;28;89860;-56
2022/06/25 00:54:31;;;;;;;64.50;51.17;;;23.80;69.20;;;;;;4967730;28;89734;-57
2022/06/25 00:56:59;;;;;;;64.93;51.08;;;23.90;69.20;;;;;;4963826;28;91966;-56
2022/06/25 00:59:28;;;;;;;64.35;51.15;;;23.90;68.90;;;;;;4964673;28;92442;-56
2022/06/25 01:01:53;;;;;;;64.45;50.97;;;23.80;68.80;;;;;;4965346;28;92505;-58
2022/06/25 01:04:20;;;;;;;64.80;51.05;;;23.90;69.00;;;;;;4969152;28;90005;-56
2022/06/25 01:06:46;;;;;;;64.78;51.08;;;23.80;68.90;;;;;;4967074;28;93502;-57
2022/06/25 01:09:13;;;;;;;65.30;50.97;;;23.80;68.80;;;;;;4956448;28;89912;-57
2022/06/25 01:11:39;;;;;;;64.82;51.08;;;23.80;69.10;;;;;;4962132;28;95849;-57
2022/06/25 01:14:09;;;;;;;63.90;50.80;;;23.80;69.10;;;;;;4965125;28;90171;-56
2022/06/25 01:16:36;;;;;;;64.60;50.92;;;23.80;68.90;;;;;;4972408;28;89063;-56
2022/06/25 01:19:10;;;;;;;63.88;50.80;;;23.80;69.00;;;;;;4965783;28;91920;-59
2022/06/25 01:21:36;;;;;;;64.65;51.25;;;23.80;68.70;;;;;;4973129;28;90157;-58
2022/06/25 01:24:06;;;;;;;64.68;51.25;;;23.90;68.70;;;;;;4961379;28;94921;-54
2022/06/25 01:26:36;;;;;;;65.70;51.08;;;23.80;68.80;;;;;;4973515;28;89647;-57
2022/06/25 01:29:03;;;;;;;64.80;51.00;;;23.80;68.80;;;;;;4967806;28;89600;-54
2022/06/25 01:31:29;;;;;;;64.47;50.97;;;23.80;68.70;;;;;;4970334;28;90357;-57
2022/06/25 01:33:55;;;;;;;64.22;50.78;;;23.80;68.50;;;;;;4961458;28;90156;-55
2022/06/25 01:36:21;;;;;;;64.43;50.97;;;23.80;68.60;;;;;;4976343;28;92203;-55
2022/06/25 01:38:47;;;;;;;65.63;50.95;;;23.80;68.60;;;;;;4959058;28;90526;-56
2022/06/25 01:41:12;;;;;;;64.40;50.97;;;23.80;68.50;;;;;;4968402;28;88828;-59
2022/06/25 01:43:39;;;;;;;64.82;51.03;;;23.70;68.60;;;;;;4964025;28;91255;-56
2022/06/25 01:46:05;;;;;;;65.00;51.03;;;23.70;68.70;;;;;;4971936;28;90545;-57
2022/06/25 01:48:31;;;;;;;64.53;51.05;;;23.70;68.60;;;;;;4968980;28;91207;-55
2022/06/25 01:50:56;;;;;;;64.28;51.03;;;23.70;68.70;;;;;;4967583;28;90409;-57
2022/06/25 01:53:22;;;;;;;64.30;50.90;;;23.70;68.70;;;;;;4962512;28;96906;-55
2022/06/25 01:55:48;;;;;;;64.72;50.85;;;23.70;68.60;;;;;;4969992;28;90732;-59
2022/06/25 01:58:14;;;;;;;63.70;50.72;;;23.70;68.50;;;;;;4965197;28;90098;-57
2022/06/25 02:00:39;;;;;;;65.32;51.05;;;23.70;68.60;;;;;;4966179;28;89632;-56
2022/06/25 02:03:06;;;;;;;65.07;50.95;;;23.60;68.40;;;;;;4963536;28;91738;-56
2022/06/25 02:08:17;;;;;;;65.38;51.15;;;23.70;68.50;;;;;;4970430;28;90366;-56
2022/06/25 02:10:43;;;;;;;64.43;51.22;;;23.70;68.60;;;;;;4970151;28;94601;-58
2022/06/25 02:13:09;;;;;;;64.38;51.05;;;23.60;68.50;;;;;;4974499;28;90990;-59
2022/06/25 02:15:35;;;;;;;64.57;50.78;;;23.60;68.40;;;;;;4973837;28;90101;-56
2022/06/25 02:18:01;;;;;;;64.43;51.05;;;23.60;68.40;;;;;;4964905;28;90640;-58
2022/06/25 02:20:27;;;;;;;64.03;50.83;;;23.70;68.20;;;;;;4967080;28;90263;-58
2022/06/25 02:22:53;;;;;;;65.55;51.08;;;23.70;68.20;;;;;;4973521;28;90319;-58
2022/06/25 02:25:18;;;;;;;64.53;51.22;;;23.60;68.20;;;;;;4970737;28;92205;-57
2022/06/25 02:27:44;;;;;;;64.72;50.95;;;23.60;68.40;;;;;;4968711;28;90517;-56
2022/06/25 02:30:11;;;;;;;64.50;50.88;;;23.60;68.30;;;;;;4970703;28;95690;-55
2022/06/25 02:32:36;;;;;;;65.05;51.00;;;23.60;68.10;;;;;;4968922;28;89721;-55
2022/06/25 02:35:03;;;;;;;64.20;50.70;;;23.60;68.20;;;;;;4964796;28;90625;-58
2022/06/25 02:37:29;;;;;;;64.40;50.90;;;23.60;68.10;;;;;;4970518;28;91219;-57
2022/06/25 02:39:54;;;;;;;64.72;51.03;;;23.60;68.30;;;;;;4958465;28;91131;-58
2022/06/25 02:42:20;;;;;;;64.18;50.83;;;23.60;68.10;;;;;;4969504;28;90690;-58
2022/06/25 02:44:45;;;;;;;64.18;50.85;;;23.60;68.10;;;;;;4968480;28;91254;-59
2022/06/25 02:47:11;;;;;;;64.22;50.63;;;23.60;68.00;;;;;;4970439;28;90903;-57
2022/06/25 02:49:37;;;;;;;64.75;51.05;;;23.60;67.70;;;;;;4962939;28;90135;-58
2022/06/25 02:52:03;;;;;;;64.25;50.88;;;23.60;68.20;;;;;;4976187;28;91299;-58
2022/06/25 02:54:28;;;;;;;64.70;50.83;;;23.60;68.00;;;;;;4973902;28;89086;-55
2022/06/25 02:59:42;;;;;;;64.00;50.83;;;23.60;67.80;;;;;;4965200;28;97997;-55
2022/06/25 03:02:08;;;;;;;64.25;50.95;;;23.60;68.00;;;;;;4972562;28;92830;-58
2022/06/25 03:04:34;;;;;;;64.20;50.83;;;23.60;68.10;;;;;;4966170;28;90078;-58
2022/06/25 03:06:59;;;;;;;64.13;50.80;;;23.60;67.80;;;;;;4969783;28;90583;-57
2022/06/25 03:09:25;;;;;;;63.92;50.72;;;23.60;67.90;;;;;;4945951;28;92335;-58
2022/06/25 03:11:51;;;;;;;64.13;50.95;;;23.60;67.80;;;;;;4968402;28;91627;-58
2022/06/25 03:14:17;;;;;;;64.20;50.67;;;23.60;67.60;;;;;;4973569;28;89762;-58
2022/06/25 03:16:43;;;;;;;64.35;50.72;;;23.60;67.80;;;;;;4973175;28;90425;-57
2022/06/25 03:19:10;;;;;;;64.38;50.92;;;23.50;67.50;;;;;;4966281;28;89802;-58
2022/06/25 03:21:36;;;;;;;64.60;50.83;;;23.60;67.80;;;;;;4970796;28;90185;-58
2022/06/25 03:24:03;;;;;;;64.25;50.78;;;23.50;67.80;;;;;;4969987;28;89589;-59
2022/06/25 03:26:29;;;;;;;64.32;50.85;;;23.60;68.00;;;;;;4971627;28;91312;-55
2022/06/25 03:28:55;;;;;;;64.47;51.05;;;23.50;67.80;;;;;;4966987;28;90757;-55
2022/06/25 03:31:21;;;;;;;64.90;50.70;;;23.60;67.90;;;;;;4963947;28;92519;-57
2022/06/25 03:33:48;;;;;;;64.60;50.72;;;23.50;67.70;;;;;;4970920;28;90061;-57
2022/06/25 03:36:13;;;;;;;64.28;50.63;;;23.60;67.60;;;;;;4970221;28;90887;-57
2022/06/25 03:38:39;;;;;;;64.28;50.88;;;23.60;67.50;;;;;;4969875;28;89928;-59
2022/06/25 03:41:47;;;;;;;63.58;50.53;;;23.60;67.70;;;;;;4966703;28;92892;-56
2022/06/25 03:43:53;;;;;;;64.07;50.65;;;23.60;67.50;;;;;;4958546;28;90115;-56
2022/06/25 03:46:19;;;;;;;64.05;50.63;;;23.50;67.50;;;;;;4965743;28;90900;-57
2022/06/25 03:48:45;;;;;;;64.15;50.67;;;23.50;67.50;;;;;;4973420;28;91080;-58
2022/06/25 03:51:10;;;;;;;65.03;50.95;;;23.50;67.50;;;;;;4968700;28;90859;-54
2022/06/25 03:53:36;;;;;;;66.47;50.95;;;23.50;67.40;;;;;;4977170;28;89668;-57
2022/06/25 03:56:02;;;;;;;64.18;50.85;;;23.60;67.50;;;;;;4965510;28;90154;-58
2022/06/25 03:58:28;;;;;;;64.10;50.95;;;23.50;67.30;;;;;;4969600;28;89998;-56
2022/06/25 04:00:53;;;;;;;64.38;50.80;;;23.60;67.50;;;;;;4966994;28;89560;-57
2022/06/25 04:03:19;;;;;;;64.43;50.75;;;23.50;67.50;;;;;;4973927;28;90090;-58
2022/06/25 04:05:45;;;;;;;63.90;50.67;;;23.50;67.40;;;;;;4965912;28;90544;-56
2022/06/25 04:08:10;;;;;;;64.05;50.75;;;23.50;67.50;;;;;;4974621;28;89000;-58
2022/06/25 04:10:36;;;;;;;64.50;50.85;;;23.60;67.50;;;;;;4965800;28;90085;-57
2022/06/25 04:13:02;;;;;;;64.10;50.67;;;23.60;67.30;;;;;;4970449;28;90915;-58
2022/06/25 04:15:28;;;;;;;64.90;50.75;;;23.60;67.40;;;;;;4967498;28;91003;-58
2022/06/25 04:17:53;;;;;;;64.30;50.80;;;23.60;67.20;;;;;;4954888;28;89675;-58
2022/06/25 04:20:19;;;;;;;64.40;50.75;;;23.60;67.50;;;;;;4971578;28;91428;-58
2022/06/25 04:22:44;;;;;;;64.22;50.92;;;23.60;67.40;;;;;;4972959;28;89542;-57
2022/06/25 04:25:10;;;;;;;64.28;50.83;;;23.60;67.20;;;;;;4970969;28;90061;-54
2022/06/25 04:30:20;;;;;;;63.95;50.50;;;23.60;67.10;;;;;;4965245;28;89590;-58
2022/06/25 04:32:46;;;;;;;64.57;51.05;;;23.60;67.00;;;;;;4968388;28;92007;-55
2022/06/25 04:35:12;;;;;;;64.60;50.60;;;23.60;67.20;;;;;;4976039;28;90907;-57
2022/06/25 04:37:37;;;;;;;64.20;50.63;;;23.60;67.10;;;;;;4968149;28;89856;-56
2022/06/25 04:40:04;;;;;;;63.53;50.60;;;23.60;67.10;;;;;;4960143;28;92789;-60
2022/06/25 04:42:29;;;;;;;63.50;50.42;;;23.60;67.30;;;;;;4970778;28;90782;-57
2022/06/25 04:44:55;;;;;;;65.28;50.80;;;23.60;67.10;;;;;;4966898;28;90354;-58
2022/06/25 04:47:20;;;;;;;63.85;50.58;;;23.60;67.10;;;;;;4967250;28;89899;-57
2022/06/25 04:49:46;;;;;;;64.53;50.72;;;23.60;67.00;;;;;;4967646;28;89918;-58
2022/06/25 04:52:11;;;;;;;63.63;50.45;;;23.50;67.00;;;;;;4971326;28;89776;-54
2022/06/25 04:54:37;;;;;;;64.05;50.90;;;23.50;67.00;;;;;;4976591;28;91061;-58
2022/06/25 04:57:03;;;;;;;64.07;50.63;;;23.50;66.80;;;;;;4968543;28;90044;-58
2022/06/25 04:59:29;;;;;;;64.57;50.72;;;23.50;66.60;;;;;;4971454;28;90300;-56
2022/06/25 05:01:54;;;;;;;63.80;50.53;;;23.50;66.70;;;;;;4962961;28;95887;-57
2022/06/25 05:04:20;;;;;;;63.90;50.58;;;23.50;66.80;;;;;;4975005;28;91915;-58
2022/06/25 05:06:46;;;;;;;63.72;50.50;;;23.50;66.90;;;;;;4969228;28;96703;-57
2022/06/25 05:09:14;;;;;;;63.70;50.63;;;23.50;66.60;;;;;;4969763;28;96679;-56
2022/06/25 05:11:40;;;;;;;63.85;50.67;;;23.50;66.70;;;;;;4964404;28;96040;-57
2022/06/25 05:14:05;;;;;;;64.00;50.55;;;23.50;66.60;;;;;;4975577;28;93683;-57
2022/06/25 05:16:31;;;;;;;64.10;50.53;;;23.50;66.40;;;;;;4970201;28;93208;-59
2022/06/25 05:18:57;;;;;;;64.20;50.85;;;23.40;66.60;;;;;;4971822;28;90091;-57
2022/06/25 05:21:22;;;;;;;64.55;50.63;;;23.40;66.50;;;;;;4973888;28;90003;-57
2022/06/25 05:23:48;;;;;;;64.32;50.65;;;23.40;66.70;;;;;;4970390;28;91199;-56
2022/06/25 05:26:13;;;;;;;63.85;50.65;;;23.40;66.70;;;;;;4971413;28;92359;-58
2022/06/25 05:28:39;;;;;;;64.63;50.78;;;23.40;67.10;;;;;;4970547;28;92236;-58
2022/06/25 05:31:05;;;;;;;64.13;50.83;;;23.40;66.60;;;;;;4973643;28;90751;-56
2022/06/25 05:33:30;;;;;;;65.97;51.13;;;23.30;66.90;;;;;;4974313;28;91117;-58
2022/06/25 05:35:56;;;;;;;65.40;50.95;;;23.30;66.40;;;;;;4972523;28;91548;-58
2022/06/25 05:38:22;;;;;;;63.83;50.65;;;23.30;66.70;;;;;;4969739;28;91954;-58
2022/06/25 05:40:47;;;;;;;64.90;50.83;;;23.40;66.60;;;;;;4962743;28;93694;-56
2022/06/25 05:43:13;;;;;;;65.95;50.97;;;23.30;66.10;;;;;;4968398;28;91411;-57
2022/06/25 05:45:39;;;;;;;64.07;50.72;;;23.40;66.70;;;;;;4971062;28;90545;-58
2022/06/25 05:48:05;;;;;;;64.63;50.67;;;23.30;66.70;;;;;;4965354;28;97301;-58
2022/06/25 05:50:31;;;;;;;64.13;50.70;;;23.40;66.60;;;;;;4976831;28;89628;-58
2022/06/25 05:52:57;;;;;;;64.35;50.67;;;23.30;66.20;;;;;;4964934;28;93710;-59
2022/06/25 05:55:23;;;;;;;64.40;50.65;;;23.40;66.60;;;;;;4971278;28;92524;-58
2022/06/25 05:57:50;;;;;;;64.03;50.88;;;23.30;66.40;;;;;;4969921;28;92141;-57
2022/06/25 06:00:16;;;;;;;64.50;50.45;;;23.20;66.50;;;;;;4974054;28;89877;-59
2022/06/25 06:02:42;;;;;;;65.60;50.80;;;23.30;66.80;;;;;;4969048;28;96207;-59
2022/06/25 06:05:08;;;;;;;64.10;50.83;;;23.20;66.80;;;;;;4972032;28;90073;-58
2022/06/25 06:07:33;;;;;;;64.40;50.90;;;23.30;66.50;;;;;;4966597;28;92289;-58
2022/06/25 06:09:59;;;;;;;64.82;50.75;;;23.20;66.60;;;;;;4968925;28;91019;-59
2022/06/25 06:12:25;;;;;;;63.78;50.58;;;23.20;66.50;;;;;;4972659;28;91517;-57
2022/06/25 06:14:50;;;;;;;65.78;50.72;;;23.30;66.50;;;;;;4972290;28;90287;-57
2022/06/25 06:17:16;;;;;;;64.18;50.55;;;23.20;66.40;;;;;;4967444;28;94151;-56
2022/06/25 06:19:42;;;;;;;64.05;50.65;;;23.20;66.50;;;;;;4964968;28;89856;-58
2022/06/25 06:22:08;;;;;;;64.20;50.58;;;23.20;66.70;;;;;;4972464;28;90036;-57
2022/06/25 06:24:33;;;;;;;64.80;50.92;;;23.20;66.40;;;;;;4968684;28;92067;-53
2022/06/25 06:27:01;;;;;;;64.57;50.75;;;23.20;66.40;;;;;;4973209;28;90544;-57
2022/06/25 06:29:28;;;;;;;63.95;50.58;;;23.20;66.70;;;;;;4973700;28;90689;-59
2022/06/25 06:31:54;;;;;;;64.22;50.50;;;23.20;66.90;;;;;;4971742;28;91123;-55
2022/06/25 06:34:19;;;;;;;64.53;50.50;;;23.20;66.70;;;;;;4968689;28;91285;-57
2022/06/25 06:36:45;;;;;;;64.13;50.78;;;23.20;66.70;;;;;;4971451;28;90012;-56
2022/06/25 06:39:11;;;;;;;63.90;50.65;;;23.20;66.80;;;;;;4965498;28;90324;-58
2022/06/25 06:41:37;;;;;;;64.40;50.75;;;23.20;66.50;;;;;;4967252;28;91229;-59
2022/06/25 06:44:02;;;;;;;64.65;50.65;;;23.20;66.80;;;;;;4963947;28;92208;-55
2022/06/25 06:46:28;;;;;;;65.18;50.85;;;23.30;66.80;;;;;;4969460;28;89955;-58
2022/06/25 06:48:54;;;;;;;63.90;50.53;;;23.20;66.50;;;;;;4959734;28;90060;-57
2022/06/25 06:51:19;;;;;;;63.70;50.53;;;23.20;66.70;;;;;;4967642;28;90207;-57
2022/06/25 06:53:45;;;;;;;64.18;50.72;;;23.30;66.60;;;;;;4965369;28;89973;-55
2022/06/25 06:56:11;;;;;;;63.90;50.72;;;23.20;66.70;;;;;;4968097;28;97824;-57
2022/06/25 06:58:37;;;;;;;64.72;50.85;;;23.20;66.40;;;;;;4960269;28;89980;-58
2022/06/25 07:01:03;;;;;;;64.65;50.88;;;23.20;66.60;;;;;;4970992;28;91473;-57
2022/06/25 07:03:29;;;;;;;64.03;50.83;;;23.20;66.80;;;;;;4962935;28;90693;-58
2022/06/25 07:05:55;;;;;;;64.38;50.90;;;23.20;67.00;;;;;;4971724;28;90583;-56
2022/06/25 07:08:21;;;;;;;64.75;50.85;;;23.30;66.80;;;;;;4961197;28;91671;-59
2022/06/25 07:10:47;;;;;;;65.85;50.80;;;23.30;66.50;;;;;;4965228;28;91298;-59
2022/06/25 07:13:13;;;;;;;63.85;50.60;;;23.30;66.50;;;;;;4961609;28;91139;-56
2022/06/25 07:15:42;;;;;;;64.15;50.85;;;23.30;66.50;;;;;;4964578;28;97563;-57
2022/06/25 07:18:08;;;;;;;65.25;50.95;;;23.40;66.40;;;;;;4967314;28;90225;-59
2022/06/25 07:20:34;;;;;;;65.10;50.85;;;23.40;66.30;;;;;;4958994;28;91303;-55
2022/06/25 07:22:59;;;;;;;63.83;50.55;;;23.50;66.30;;;;;;4967522;28;90382;-58
2022/06/25 07:25:25;;;;;;;64.45;50.83;;;23.40;66.00;;;;;;4968513;28;89952;-58
2022/06/25 07:27:51;;;;;;;64.20;50.83;;;23.40;65.70;;;;;;4971794;28;91363;-59
2022/06/25 07:30:17;;;;;;;64.78;50.83;;;23.40;65.90;;;;;;4959422;28;98129;-59
2022/06/25 07:32:43;;;;;;;65.00;50.95;;;23.50;65.50;;;;;;4959627;28;95938;-59
2022/06/25 07:35:09;;;;;;;64.20;50.67;;;23.50;65.70;;;;;;4962747;28;91126;-59
2022/06/25 07:37:35;;;;;;;64.40;50.92;;;23.50;65.30;;;;;;4972663;28;89604;-59
2022/06/25 07:40:01;;;;;;;64.35;50.72;;;23.60;65.50;;;;;;4960809;28;89892;-59
2022/06/25 07:42:29;;;;;;;64.28;50.72;;;23.70;65.30;;;;;;4952718;28;92388;-57
2022/06/25 07:44:54;;;;;;;64.70;50.95;;;23.70;65.50;;;;;;4973126;28;90236;-58
2022/06/25 07:47:20;;;;;;;66.75;50.92;;;23.90;65.00;;;;;;4977524;28;92418;-58
2022/06/25 07:52:30;;;;;;;65.40;51.15;;;24.00;64.60;;;;;;4979863;28;91924;-59
2022/06/25 07:54:56;;;;;;;65.82;51.03;;;24.10;64.30;;;;;;4962784;28;91678;-58
2022/06/25 07:57:21;;;;;;;64.93;51.15;;;24.10;64.10;;;;;;4967781;28;90441;-58
2022/06/25 07:59:47;;;;;;;65.05;51.10;;;24.00;64.10;;;;;;4962809;28;92250;-59
2022/06/25 08:02:13;;;;;;;64.45;50.97;;;24.00;64.30;;;;;;4968326;28;90789;-57
2022/06/25 08:04:38;;;;;;;64.53;50.95;;;24.10;64.30;;;;;;4960838;28;92164;-59
2022/06/25 08:07:04;;;;;;;64.57;50.83;;;24.20;64.10;;;;;;4971598;28;90162;-58
2022/06/25 08:09:30;;;;;;;65.43;51.05;;;24.10;64.00;;;;;;4943202;28;91214;-59
2022/06/25 08:11:56;;;;;;;65.18;50.85;;;24.10;64.10;;;;;;4960046;28;90984;-58
2022/06/25 08:14:22;;;;;;;64.95;50.83;;;24.10;64.10;;;;;;4961310;28;90168;-58
2022/06/25 08:16:48;;;;;;;64.68;51.03;;;24.20;64.30;;;;;;4963059;28;91334;-58
2022/06/25 08:19:13;;;;;;;72.03;50.97;;;24.20;64.20;;;;;;4965076;28;91367;-60
2022/06/25 08:21:39;;;;;;;65.47;51.10;;;24.40;64.20;;;;;;4969944;28;92989;-61
2022/06/25 08:24:05;;;;;;;66.40;50.70;;;24.40;64.00;;;;;;4963279;28;97370;-66
2022/06/25 08:26:31;;;;;;;66.28;50.88;;;24.40;64.10;;;;;;4939970;28;90679;-61
2022/06/25 08:28:56;;;;;;;67.20;50.95;;;24.50;63.80;;;;;;4941062;28;93265;-63
2022/06/25 08:31:23;;;;;;;65.47;50.92;;;24.60;63.30;;;;;;4937008;28;92881;-57
2022/06/25 08:33:49;;;;;;;64.88;51.03;;;24.70;63.60;;;;;;4953030;28;91316;-65
2022/06/25 08:36:15;;;;;;;65.97;51.22;;;24.70;63.60;;;;;;4955828;28;91072;-61
2022/06/25 08:38:40;;;;;;;66.65;51.05;;;24.70;63.80;;;;;;4958034;28;91370;-59
2022/06/25 08:41:06;;;;;;;64.68;50.83;;;24.80;64.20;;;;;;4961024;28;93109;-61
2022/06/25 08:43:32;;;;;;;66.15;50.97;;;24.80;63.90;;;;;;4960526;28;93781;-61
2022/06/25 08:45:57;;;;;;;65.28;51.05;;;24.60;63.70;;;;;;4960288;28;90132;-61
2022/06/25 08:48:34;;;;;;;67.35;51.15;;;24.50;64.00;;;;;;4963223;28;90509;-62
2022/06/25 08:51:01;;;;;;;65.38;50.85;;;24.50;64.40;;;;;;4962639;28;92124;-62
2022/06/25 08:53:34;;;;;;;66.35;51.10;;;24.70;63.50;;;;;;4961689;28;97189;-62
2022/06/25 08:56:03;;;;;;;77.20;51.08;;;24.70;63.20;;;;;;4963276;28;91872;-62
2022/06/25 08:58:29;;;;;;;64.50;50.85;;;24.70;62.80;;;;;;4947240;28;90381;-62
2022/06/25 09:00:55;;;;;;;66.22;50.78;;;24.50;62.10;;;;;;4958686;28;91809;-62
2022/06/25 09:03:21;;;;;;;69.05;50.75;;;24.30;62.00;;;;;;4973827;28;89878;-63
2022/06/25 09:05:46;;;;;;;63.78;50.50;;;23.90;60.60;;;;;;4962454;28;89920;-62
2022/06/25 09:08:14;;;;;;;65.15;50.63;;;23.70;62.20;;;;;;4964731;28;91991;-62
2022/06/25 09:10:41;;;;;;;64.25;50.38;;;23.40;63.00;;;;;;4954364;28;90783;-62
2022/06/25 09:13:09;;;;;;;63.58;50.25;;;22.90;62.30;;;;;;4980865;28;87738;-63
2022/06/25 09:15:38;;;;;;;64.05;50.65;;;23.30;64.70;;;;;;4954467;28;89846;-62
2022/06/25 09:18:07;;;;;;;64.13;50.63;;;23.20;64.60;;;;;;4968708;28;90083;-62
2022/06/25 09:20:33;;;;;;;65.25;50.35;;;23.40;63.80;;;;;;4958507;28;90299;-63
2022/06/25 09:23:03;;;;;;;65.63;50.35;;;23.40;63.10;;;;;;4966531;28;90019;-63
2022/06/25 09:25:30;;;;;;;64.40;50.60;;;23.40;63.70;;;;;;4953299;28;90641;-63
2022/06/25 09:27:57;;;;;;;64.57;50.70;;;23.30;62.70;;;;;;4964829;28;90323;-62
2022/06/25 09:30:25;;;;;;;66.57;50.83;;;23.40;63.40;;;;;;4957671;28;90206;-63
2022/06/25 09:32:54;;;;;;;65.32;50.42;;;23.50;62.80;;;;;;4968453;28;91257;-62
2022/06/25 09:35:36;;;;;;;65.28;50.53;;;23.30;63.10;;;;;;4968181;28;92116;-62
2022/06/25 09:38:09;;;;;;;63.83;50.47;;;23.00;63.60;;;;;;4965001;28;96305;-59
2022/06/25 09:40:37;;;;;;;66.47;50.55;;;23.10;65.30;;;;;;4962177;28;91277;-62
2022/06/25 09:43:25;;;;;;;63.85;50.33;;;22.90;66.00;;;;;;4971916;28;96334;-59
2022/06/25 09:45:54;;;;;;;64.13;50.50;;;23.00;64.90;;;;;;4962195;28;91663;-57
2022/06/25 09:48:28;;;;;;;65.00;50.65;;;23.30;65.10;;;;;;4975049;28;91192;-55
2022/06/25 09:51:10;;;;;;;64.38;50.72;;;23.50;64.30;;;;;;4969149;28;90734;-58
2022/06/25 09:53:52;;;;;;;64.97;50.75;;;23.70;63.80;;;;;;4969465;28;92437;-63
2022/06/25 09:56:33;;;;;;;71.40;51.20;;;23.60;62.70;;;;;;4959867;28;92475;-53
2022/06/25 09:59:00;;;;;;;65.82;50.83;;;23.70;63.30;;;;;;4969002;28;91529;-62
2022/06/25 10:01:28;;;;;;;70.57;51.22;;;23.70;63.20;;;;;;4960099;28;91212;-59
2022/06/25 10:03:55;;;;;;;65.88;51.00;;;23.70;63.70;;;;;;4973434;28;90085;-52
2022/06/25 10:06:23;;;;;;;65.65;51.20;;;23.60;63.00;;;;;;4963576;28;89290;-54
2022/06/25 10:08:51;;;;;;;66.38;51.15;;;23.60;62.40;;;;;;4968398;28;99153;-57
2022/06/25 10:11:19;;;;;;;65.72;51.13;;;23.60;63.00;;;;;;4957056;28;91956;-62
2022/06/25 10:13:48;;;;;;;66.70;50.83;;;23.70;62.20;;;;;;4973856;28;90263;-63
2022/06/25 10:16:16;;;;;;;65.70;50.85;;;23.70;61.80;;;;;;4964838;28;89446;-60
2022/06/25 10:18:43;;;;;;;65.28;50.70;;;23.80;61.50;;;;;;4972628;28;90004;-58
2022/06/25 10:21:09;;;;;;;65.40;51.05;;;23.70;60.70;;;;;;4960823;28;90506;-58
2022/06/25 10:23:37;;;;;;;66.45;51.00;;;23.80;60.90;;;;;;4959818;28;90957;-56
2022/06/25 10:26:04;;;;;;;70.50;51.22;;;23.80;60.90;;;;;;4965806;28;90042;-59
2022/06/25 10:28:30;;;;;;;65.20;50.95;;;23.90;61.30;;;;;;4961961;28;96607;-63
2022/06/25 10:30:57;;;;;;;65.57;51.13;;;24.00;61.60;;;;;;4965973;28;90754;-55
2022/06/25 10:33:28;;;;;;;67.47;50.83;;;23.90;58.70;;;;;;4966472;28;95661;-59
2022/06/25 10:35:58;;;;;;;65.60;50.95;;;23.80;61.00;;;;;;4967623;28;90660;-55
2022/06/25 10:38:26;;;;;;;66.57;51.13;;;23.70;61.60;;;;;;4975297;28;90116;-56
2022/06/25 10:43:50;;;;;;;65.95;51.28;;;24.00;61.30;;;;;;4972404;28;91358;-56
2022/06/25 10:46:26;;;;;;;67.93;51.42;;;23.90;59.80;;;;;;4947932;28;90146;-62
2022/06/25 10:48:56;;;;;;;65.50;51.15;;;23.70;59.70;;;;;;4973603;28;91999;-60
2022/06/25 10:51:35;;;;;;;66.43;51.30;;;23.90;60.20;;;;;;4965455;28;90124;-60
2022/06/25 10:54:02;;;;;;;65.82;51.42;;;23.90;60.60;;;;;;4966372;28;91223;-55
2022/06/25 10:56:45;;;;;;;67.60;51.53;;;24.00;60.00;;;;;;4964948;28;90618;-58
2022/06/25 10:59:31;;;;;;;68.88;52.58;;;24.10;60.50;;;;;;4948638;28;89997;-54
2022/06/25 11:02:07;;;;;;;72.25;53.13;;;24.10;60.60;;;;;;4950812;28;89723;-62
2022/06/25 11:04:34;;;;;;;68.35;51.80;;;24.20;59.40;;;;;;4965903;28;90239;-58
2022/06/25 11:07:11;;;;;;;69.10;52.13;;;23.90;58.70;;;;;;4959665;28;91316;-57
2022/06/25 11:09:38;;;;;;;67.90;51.65;;;24.00;60.30;;;;;;4960408;28;90214;-58
2022/06/25 11:12:06;;;;;;;68.88;51.45;;;24.20;60.30;;;;;;4957007;28;90264;-57
2022/06/25 11:14:32;;;;;;;66.93;51.72;;;24.20;60.10;;;;;;4960255;28;95727;-58
2022/06/25 11:17:06;;;;;;;68.03;51.42;;;24.40;60.10;;;;;;4946190;28;90866;-57
2022/06/25 11:19:32;;;;;;;66.93;51.53;;;24.40;60.00;;;;;;4960579;28;90831;-59
2022/06/25 11:22:01;;;;;;;67.35;51.38;;;24.30;59.70;;;;;;4970552;28;94487;-57
2022/06/25 11:24:28;;;;;;;65.65;51.42;;;24.00;59.00;;;;;;4970776;28;92519;-57
2022/06/25 11:29:49;;;;;;;69.03;51.55;;;23.60;61.60;;;;;;4946429;28;92444;-58
2022/06/25 11:32:23;;;;;;;66.53;51.20;;;23.70;61.40;;;;;;4947431;28;89686;-56
2022/06/25 11:34:57;;;;;;;70.18;51.65;;;24.00;61.30;;;;;;4936736;28;90089;-58
2022/06/25 11:37:23;;;;;;;68.60;51.60;;;24.10;60.60;;;;;;4943414;28;89536;-57
2022/06/25 11:39:50;;;;;;;68.18;52.33;;;24.30;59.80;;;;;;4943331;28;91120;-59
2022/06/25 11:42:16;;;;;;;75.97;53.53;;;24.40;60.50;;;;;;4940911;28;90898;-60
2022/06/25 11:44:50;;;;;;;74.53;53.03;;;24.40;60.00;;;;;;4930890;28;93141;-60
2022/06/25 11:47:22;;;;;;;68.60;52.55;;;24.50;59.90;;;;;;4949516;28;91466;-59
2022/06/25 11:49:49;;;;;;;71.93;52.53;;;24.40;59.30;;;;;;4952536;28;89757;-59
2022/06/25 11:52:16;;;;;;;68.35;51.85;;;24.50;58.40;;;;;;4954847;28;90657;-60
2022/06/25 11:54:43;;;;;;;68.45;52.10;;;24.60;57.50;;;;;;4937805;28;90303;-59
2022/06/25 11:57:15;;;;;;;68.25;51.92;;;24.60;57.00;;;;;;4954130;28;89713;-59
2022/06/25 11:59:41;;;;;;;69.75;52.15;;;24.60;57.80;;;;;;4952373;28;90187;-59
2022/06/25 12:02:08;;;;;;;69.43;52.10;;;24.70;57.20;;;;;;4948768;28;91020;-60
2022/06/25 12:04:52;;;;;;;67.97;52.28;;;24.60;56.80;;;;;;4934712;28;91115;-60
2022/06/25 12:07:22;;;;;;;70.95;52.15;;;24.70;56.30;;;;;;4949234;28;90438;-58
2022/06/25 12:09:49;;;;;;;72.30;52.28;;;24.60;57.00;;;;;;4930397;28;91183;-59
2022/06/25 12:12:17;;;;;;;67.22;52.08;;;24.50;55.90;;;;;;4942296;28;91552;-60
2022/06/25 12:14:43;;;;;;;69.05;52.95;;;24.40;55.60;;;;;;4938143;28;90581;-61
2022/06/25 12:17:12;;;;;;;79.05;57.45;;;24.40;55.80;;;;;;4933578;28;96337;-59
2022/06/25 12:19:44;;;;;;;163.98;119.50;;;24.50;55.30;;;;;;4937098;28;94970;-60
2022/06/25 12:22:21;;;;;;;110.97;83.97;;;24.50;55.10;;;;;;4937446;28;89852;-60
2022/06/25 12:24:47;;;;;;;107.40;75.47;;;24.50;54.90;;;;;;4941414;28;90809;-59
2022/06/25 12:27:13;;;;;;;81.05;60.88;;;24.50;54.90;;;;;;4948913;28;90008;-59
2022/06/25 12:29:38;;;;;;;70.22;53.25;;;24.60;54.70;;;;;;4961191;28;93881;-60
2022/06/25 12:32:07;;;;;;;69.95;53.55;;;24.60;54.00;;;;;;4959416;28;95670;-60
2022/06/25 12:34:32;;;;;;;71.35;53.53;;;24.50;55.40;;;;;;4936165;28;96022;-60
2022/06/25 12:36:59;;;;;;;68.40;52.47;;;24.50;54.50;;;;;;4954759;28;90027;-60
2022/06/25 12:39:36;;;;;;;70.07;52.50;;;24.30;54.30;;;;;;4961067;28;92072;-59
2022/06/25 12:42:12;;;;;;;69.70;52.28;;;24.40;54.80;;;;;;4961261;28;90130;-58